sensor_id;sensor_type;location;lat;lon;timestamp;noise_LAeq;noise_LA_min;noise_LA_max;noise_LA01;noise_LA95
17594;Laerm;8916;47.086;15.920;2023-01-04T00:00:46;49.22;48.03;50.42;;
17594;Laerm;8916;47.086;15.920;2023-01-04T00:03:15;49.22;48.10;50.23;;
17594;Laerm;8916;47.086;15.920;2023-01-04T00:05:45;49.22;48.23;50.33;;
17594;Laerm;8916;47.086;15.920;2023-01-04T00:08:14;49.22;48.18;50.38;;
17594;Laerm;8916;47.086;15.920;2023-01-04T00:10:43;49.23;48.03;50.44;;
17594;Laerm;8916;47.086;15.920;2023-01-04T00:13:14;49.22;48.12;50.24;;
17594;Laerm;8916;47.086;15.920;2023-01-04T00:15:43;49.23;47.96;50.34;;
17594;Laerm;8916;47.086;15.920;2023-01-04T00:18:12;49.22;48.12;50.24;;
17594;Laerm;8916;47.086;15.920;2023-01-04T00:20:42;49.23;47.95;50.33;;
17594;Laerm;8916;47.086;15.920;2023-01-04T00:23:11;49.24;48.05;50.47;;
17594;Laerm;8916;47.086;15.920;2023-01-04T00:25:40;49.22;48.20;50.20;;
17594;Laerm;8916;47.086;15.920;2023-01-04T00:28:10;49.23;48.00;50.29;;
17594;Laerm;8916;47.086;15.920;2023-01-04T00:30:41;49.23;48.05;50.39;;
17594;Laerm;8916;47.086;15.920;2023-01-04T00:33:10;49.24;48.07;50.33;;
17594;Laerm;8916;47.086;15.920;2023-01-04T00:35:40;49.23;48.32;50.42;;
17594;Laerm;8916;47.086;15.920;2023-01-04T00:38:13;49.23;48.10;50.36;;
17594;Laerm;8916;47.086;15.920;2023-01-04T00:40:42;49.22;48.13;50.43;;
17594;Laerm;8916;47.086;15.920;2023-01-04T00:43:11;49.24;48.05;50.50;;
17594;Laerm;8916;47.086;15.920;2023-01-04T00:45:43;49.22;47.93;50.45;;
17594;Laerm;8916;47.086;15.920;2023-01-04T00:48:12;49.23;48.07;50.33;;
17594;Laerm;8916;47.086;15.920;2023-01-04T00:50:43;49.22;48.16;50.33;;
17594;Laerm;8916;47.086;15.920;2023-01-04T00:53:16;49.22;47.93;50.58;;
17594;Laerm;8916;47.086;15.920;2023-01-04T00:55:47;49.24;48.08;50.26;;
17594;Laerm;8916;47.086;15.920;2023-01-04T00:58:16;49.23;48.02;50.42;;
17594;Laerm;8916;47.086;15.920;2023-01-04T01:00:49;49.22;48.15;50.33;;
17594;Laerm;8916;47.086;15.920;2023-01-04T01:03:19;49.23;48.03;50.30;;
17594;Laerm;8916;47.086;15.920;2023-01-04T01:05:49;49.22;48.16;50.35;;
17594;Laerm;8916;47.086;15.920;2023-01-04T01:08:18;49.22;48.16;50.35;;
17594;Laerm;8916;47.086;15.920;2023-01-04T01:10:54;49.21;48.20;50.24;;
17594;Laerm;8916;47.086;15.920;2023-01-04T01:13:25;49.22;48.21;50.25;;
17594;Laerm;8916;47.086;15.920;2023-01-04T01:15:55;49.22;48.12;50.32;;
17594;Laerm;8916;47.086;15.920;2023-01-04T01:18:25;49.22;48.07;50.42;;
17594;Laerm;8916;47.086;15.920;2023-01-04T01:20:54;49.23;48.10;50.28;;
17594;Laerm;8916;47.086;15.920;2023-01-04T01:23:23;49.22;48.10;50.39;;
17594;Laerm;8916;47.086;15.920;2023-01-04T01:25:52;49.22;48.07;50.43;;
17594;Laerm;8916;47.086;15.920;2023-01-04T01:28:21;49.22;48.12;50.30;;
17594;Laerm;8916;47.086;15.920;2023-01-04T01:30:52;49.23;48.13;50.55;;
17594;Laerm;8916;47.086;15.920;2023-01-04T01:33:22;49.23;48.15;50.27;;
17594;Laerm;8916;47.086;15.920;2023-01-04T01:35:51;49.22;48.10;50.41;;
17594;Laerm;8916;47.086;15.920;2023-01-04T01:38:21;49.23;48.03;50.31;;
17594;Laerm;8916;47.086;15.920;2023-01-04T01:40:50;49.24;48.12;50.20;;
17594;Laerm;8916;47.086;15.920;2023-01-04T01:43:22;49.23;48.00;50.50;;
17594;Laerm;8916;47.086;15.920;2023-01-04T01:45:54;49.23;48.21;50.59;;
17594;Laerm;8916;47.086;15.920;2023-01-04T01:48:27;49.22;48.13;50.29;;
17594;Laerm;8916;47.086;15.920;2023-01-04T01:51:01;49.22;47.88;50.39;;
17594;Laerm;8916;47.086;15.920;2023-01-04T01:53:37;49.23;47.84;50.34;;
17594;Laerm;8916;47.086;15.920;2023-01-04T01:56:09;49.22;48.16;50.33;;
17594;Laerm;8916;47.086;15.920;2023-01-04T01:58:41;49.21;47.95;50.31;;
17594;Laerm;8916;47.086;15.920;2023-01-04T02:01:11;49.22;48.02;50.32;;
17594;Laerm;8916;47.086;15.920;2023-01-04T02:03:43;49.21;48.25;50.27;;
17594;Laerm;8916;47.086;15.920;2023-01-04T02:06:19;49.22;48.25;50.43;;
17594;Laerm;8916;47.086;15.920;2023-01-04T02:08:49;49.22;48.00;50.46;;
17594;Laerm;8916;47.086;15.920;2023-01-04T02:11:19;49.22;48.12;50.21;;
17594;Laerm;8916;47.086;15.920;2023-01-04T02:13:49;49.21;48.19;50.13;;
17594;Laerm;8916;47.086;15.920;2023-01-04T02:16:48;49.22;48.05;50.43;;
17594;Laerm;8916;47.086;15.920;2023-01-04T02:19:55;49.22;47.96;50.55;;
17594;Laerm;8916;47.086;15.920;2023-01-04T02:23:10;49.21;48.08;50.25;;
17594;Laerm;8916;47.086;15.920;2023-01-04T02:30:22;49.21;48.21;50.40;;
17594;Laerm;8916;47.086;15.920;2023-01-04T02:33:13;49.22;47.81;50.44;;
17594;Laerm;8916;47.086;15.920;2023-01-04T02:35:56;49.22;48.02;50.64;;
17594;Laerm;8916;47.086;15.920;2023-01-04T02:38:33;49.22;48.07;50.23;;
17594;Laerm;8916;47.086;15.920;2023-01-04T02:41:14;49.22;48.00;50.34;;
17594;Laerm;8916;47.086;15.920;2023-01-04T02:43:54;49.22;48.13;50.47;;
17594;Laerm;8916;47.086;15.920;2023-01-04T02:46:44;49.22;48.26;50.32;;
17594;Laerm;8916;47.086;15.920;2023-01-04T02:49:16;49.22;48.04;50.45;;
17594;Laerm;8916;47.086;15.920;2023-01-04T02:52:03;49.22;48.10;50.38;;
17594;Laerm;8916;47.086;15.920;2023-01-04T02:54:32;49.22;48.00;50.38;;
17594;Laerm;8916;47.086;15.920;2023-01-04T02:57:23;49.21;48.15;50.57;;
17594;Laerm;8916;47.086;15.920;2023-01-04T03:00:16;49.21;48.13;50.40;;
17594;Laerm;8916;47.086;15.920;2023-01-04T03:03:04;49.22;48.18;50.34;;
17594;Laerm;8916;47.086;15.920;2023-01-04T03:06:05;49.21;48.03;50.48;;
17594;Laerm;8916;47.086;15.920;2023-01-04T03:08:54;49.21;47.98;50.47;;
17594;Laerm;8916;47.086;15.920;2023-01-04T03:11:32;49.21;48.12;50.37;;
17594;Laerm;8916;47.086;15.920;2023-01-04T03:14:26;49.21;48.02;50.39;;
17594;Laerm;8916;47.086;15.920;2023-01-04T03:17:02;49.21;47.95;50.23;;
17594;Laerm;8916;47.086;15.920;2023-01-04T03:19:33;49.22;48.07;50.38;;
17594;Laerm;8916;47.086;15.920;2023-01-04T03:22:31;49.22;48.23;50.27;;
17594;Laerm;8916;47.086;15.920;2023-01-04T03:25:33;49.22;48.16;50.51;;
17594;Laerm;8916;47.086;15.920;2023-01-04T03:28:22;49.22;48.08;50.39;;
17594;Laerm;8916;47.086;15.920;2023-01-04T03:31:17;49.22;48.12;50.44;;
17594;Laerm;8916;47.086;15.920;2023-01-04T03:34:05;49.22;48.07;50.43;;
17594;Laerm;8916;47.086;15.920;2023-01-04T03:37:03;49.21;48.05;50.47;;
17594;Laerm;8916;47.086;15.920;2023-01-04T03:39:47;49.21;48.03;50.44;;
17594;Laerm;8916;47.086;15.920;2023-01-04T03:42:45;49.22;48.05;50.43;;
17594;Laerm;8916;47.086;15.920;2023-01-04T03:45:39;49.22;48.15;50.20;;
17594;Laerm;8916;47.086;15.920;2023-01-04T03:48:33;49.22;48.13;50.36;;
17594;Laerm;8916;47.086;15.920;2023-01-04T03:51:10;49.22;48.21;50.50;;
17594;Laerm;8916;47.086;15.920;2023-01-04T03:53:50;49.22;48.16;50.35;;
17594;Laerm;8916;47.086;15.920;2023-01-04T03:56:23;49.23;48.16;50.36;;
17594;Laerm;8916;47.086;15.920;2023-01-04T03:58:53;49.22;48.18;50.34;;
17594;Laerm;8916;47.086;15.920;2023-01-04T04:01:24;49.22;48.05;50.39;;
17594;Laerm;8916;47.086;15.920;2023-01-04T04:03:55;49.22;48.21;50.31;;
17594;Laerm;8916;47.086;15.920;2023-01-04T04:06:42;49.23;48.15;50.34;;
17594;Laerm;8916;47.086;15.920;2023-01-04T04:09:28;49.21;48.02;50.24;;
17594;Laerm;8916;47.086;15.920;2023-01-04T04:11:59;49.22;48.20;50.29;;
17594;Laerm;8916;47.086;15.920;2023-01-04T04:14:28;49.22;48.07;50.27;;
17594;Laerm;8916;47.086;15.920;2023-01-04T04:16:57;49.23;48.23;50.40;;
17594;Laerm;8916;47.086;15.920;2023-01-04T04:19:27;49.22;48.21;50.29;;
17594;Laerm;8916;47.086;15.920;2023-01-04T04:21:56;49.22;48.12;50.27;;
17594;Laerm;8916;47.086;15.920;2023-01-04T04:24:26;49.22;48.12;50.30;;
17594;Laerm;8916;47.086;15.920;2023-01-04T04:26:55;49.22;48.15;50.42;;
17594;Laerm;8916;47.086;15.920;2023-01-04T04:29:25;49.23;48.18;50.28;;
17594;Laerm;8916;47.086;15.920;2023-01-04T04:31:54;49.22;48.18;50.30;;
17594;Laerm;8916;47.086;15.920;2023-01-04T04:34:24;49.23;48.12;50.34;;
17594;Laerm;8916;47.086;15.920;2023-01-04T04:36:53;49.22;47.90;50.18;;
17594;Laerm;8916;47.086;15.920;2023-01-04T04:39:22;49.22;48.05;50.25;;
17594;Laerm;8916;47.086;15.920;2023-01-04T04:41:51;49.22;48.07;50.45;;
17594;Laerm;8916;47.086;15.920;2023-01-04T04:44:19;49.22;48.15;50.34;;
17594;Laerm;8916;47.086;15.920;2023-01-04T04:46:50;49.21;47.98;50.27;;
17594;Laerm;8916;47.086;15.920;2023-01-04T04:49:19;49.21;48.13;50.22;;
17594;Laerm;8916;47.086;15.920;2023-01-04T04:51:49;49.22;48.13;50.30;;
17594;Laerm;8916;47.086;15.920;2023-01-04T04:54:20;49.22;48.16;50.50;;
17594;Laerm;8916;47.086;15.920;2023-01-04T04:56:51;49.22;47.96;50.33;;
17594;Laerm;8916;47.086;15.920;2023-01-04T04:59:21;49.22;48.15;50.44;;
17594;Laerm;8916;47.086;15.920;2023-01-04T05:01:51;49.22;48.10;50.66;;
17594;Laerm;8916;47.086;15.920;2023-01-04T05:04:21;49.21;48.20;50.32;;
17594;Laerm;8916;47.086;15.920;2023-01-04T05:06:50;49.22;48.05;50.29;;
17594;Laerm;8916;47.086;15.920;2023-01-04T05:09:22;49.22;48.15;50.31;;
17594;Laerm;8916;47.086;15.920;2023-01-04T05:11:51;49.21;48.13;50.29;;
17594;Laerm;8916;47.086;15.920;2023-01-04T05:14:37;49.21;47.98;50.21;;
17594;Laerm;8916;47.086;15.920;2023-01-04T05:17:08;49.22;48.05;50.36;;
17594;Laerm;8916;47.086;15.920;2023-01-04T05:19:39;49.21;48.21;50.26;;
17594;Laerm;8916;47.086;15.920;2023-01-04T05:22:08;49.21;47.99;50.35;;
17594;Laerm;8916;47.086;15.920;2023-01-04T05:24:38;49.21;48.12;50.26;;
17594;Laerm;8916;47.086;15.920;2023-01-04T05:27:07;49.22;48.13;50.43;;
17594;Laerm;8916;47.086;15.920;2023-01-04T05:29:36;49.22;48.13;50.37;;
17594;Laerm;8916;47.086;15.920;2023-01-04T05:32:24;49.21;48.23;50.57;;
17594;Laerm;8916;47.086;15.920;2023-01-04T05:34:53;49.21;48.13;50.50;;
17594;Laerm;8916;47.086;15.920;2023-01-04T05:37:22;49.21;48.18;50.29;;
17594;Laerm;8916;47.086;15.920;2023-01-04T05:39:52;49.20;48.01;50.24;;
17594;Laerm;8916;47.086;15.920;2023-01-04T05:42:21;49.20;47.96;50.37;;
17594;Laerm;8916;47.086;15.920;2023-01-04T05:44:56;49.21;48.02;50.53;;
17594;Laerm;8916;47.086;15.920;2023-01-04T05:47:27;49.21;48.15;50.46;;
17594;Laerm;8916;47.086;15.920;2023-01-04T05:49:57;49.21;48.00;50.30;;
17594;Laerm;8916;47.086;15.920;2023-01-04T05:52:26;49.21;48.00;50.44;;
17594;Laerm;8916;47.086;15.920;2023-01-04T05:54:56;49.21;47.76;50.24;;
17594;Laerm;8916;47.086;15.920;2023-01-04T05:57:25;49.21;48.13;50.40;;
17594;Laerm;8916;47.086;15.920;2023-01-04T05:59:54;49.21;48.21;50.32;;
17594;Laerm;8916;47.086;15.920;2023-01-04T06:02:29;49.22;48.03;50.38;;
17594;Laerm;8916;47.086;15.920;2023-01-04T06:04:59;49.23;48.13;50.62;;
17594;Laerm;8916;47.086;15.920;2023-01-04T06:07:32;49.21;48.03;50.31;;
17594;Laerm;8916;47.086;15.920;2023-01-04T06:10:01;49.21;48.12;50.21;;
17594;Laerm;8916;47.086;15.920;2023-01-04T06:12:30;49.22;48.16;50.38;;
17594;Laerm;8916;47.086;15.920;2023-01-04T06:15:00;49.22;48.18;50.37;;
17594;Laerm;8916;47.086;15.920;2023-01-04T06:17:30;49.22;47.93;50.34;;
17594;Laerm;8916;47.086;15.920;2023-01-04T06:20:00;49.24;48.15;50.42;;
17594;Laerm;8916;47.086;15.920;2023-01-04T06:22:29;49.22;48.13;50.26;;
17594;Laerm;8916;47.086;15.920;2023-01-04T06:24:59;49.22;48.20;50.40;;
17594;Laerm;8916;47.086;15.920;2023-01-04T06:27:28;49.23;48.12;50.39;;
17594;Laerm;8916;47.086;15.920;2023-01-04T06:29:58;49.22;48.25;50.42;;
17594;Laerm;8916;47.086;15.920;2023-01-04T06:32:27;49.23;48.29;50.19;;
17594;Laerm;8916;47.086;15.920;2023-01-04T06:34:57;49.22;48.07;50.26;;
17594;Laerm;8916;47.086;15.920;2023-01-04T06:37:27;49.22;48.18;50.41;;
17594;Laerm;8916;47.086;15.920;2023-01-04T06:39:56;49.23;48.20;50.33;;
17594;Laerm;8916;47.086;15.920;2023-01-04T06:42:25;49.22;48.20;50.24;;
17594;Laerm;8916;47.086;15.920;2023-01-04T06:45:13;49.22;48.20;50.34;;
17594;Laerm;8916;47.086;15.920;2023-01-04T06:47:43;49.21;48.12;50.28;;
17594;Laerm;8916;47.086;15.920;2023-01-04T06:50:16;49.22;47.93;50.27;;
17594;Laerm;8916;47.086;15.920;2023-01-04T06:52:45;49.22;48.16;50.35;;
17594;Laerm;8916;47.086;15.920;2023-01-04T06:55:14;49.22;48.13;50.51;;
17594;Laerm;8916;47.086;15.920;2023-01-04T06:57:43;49.23;47.95;50.61;;
17594;Laerm;8916;47.086;15.920;2023-01-04T07:00:14;49.22;48.23;50.31;;
17594;Laerm;8916;47.086;15.920;2023-01-04T07:02:43;49.22;48.08;50.27;;
17594;Laerm;8916;47.086;15.920;2023-01-04T07:05:34;49.22;48.12;50.51;;
17594;Laerm;8916;47.086;15.920;2023-01-04T07:08:03;49.22;48.08;50.46;;
17594;Laerm;8916;47.086;15.920;2023-01-04T07:10:35;49.22;47.98;50.27;;
17594;Laerm;8916;47.086;15.920;2023-01-04T07:13:05;49.21;48.12;50.27;;
17594;Laerm;8916;47.086;15.920;2023-01-04T07:15:35;49.21;48.08;50.41;;
17594;Laerm;8916;47.086;15.920;2023-01-04T07:18:08;49.22;48.12;50.66;;
17594;Laerm;8916;47.086;15.920;2023-01-04T07:20:39;49.21;48.13;50.30;;
17594;Laerm;8916;47.086;15.920;2023-01-04T07:23:08;49.21;47.95;50.43;;
17594;Laerm;8916;47.086;15.920;2023-01-04T07:25:38;49.21;48.13;50.32;;
17594;Laerm;8916;47.086;15.920;2023-01-04T07:28:08;49.22;48.20;50.30;;
17594;Laerm;8916;47.086;15.920;2023-01-04T07:30:37;49.20;48.08;50.30;;
17594;Laerm;8916;47.086;15.920;2023-01-04T07:33:06;49.20;48.07;50.44;;
17594;Laerm;8916;47.086;15.920;2023-01-04T07:35:36;49.20;48.05;50.23;;
17594;Laerm;8916;47.086;15.920;2023-01-04T07:38:06;49.21;48.02;50.33;;
17594;Laerm;8916;47.086;15.920;2023-01-04T07:40:35;49.21;48.18;50.26;;
17594;Laerm;8916;47.086;15.920;2023-01-04T07:43:23;49.20;47.98;50.33;;
17594;Laerm;8916;47.086;15.920;2023-01-04T07:45:55;49.20;47.90;50.45;;
17594;Laerm;8916;47.086;15.920;2023-01-04T07:48:24;49.21;48.18;50.33;;
17594;Laerm;8916;47.086;15.920;2023-01-04T07:50:56;49.21;48.07;50.91;;
17594;Laerm;8916;47.086;15.920;2023-01-04T07:53:27;49.20;48.05;50.24;;
17594;Laerm;8916;47.086;15.920;2023-01-04T07:55:56;49.20;48.10;50.26;;
17594;Laerm;8916;47.086;15.920;2023-01-04T07:58:30;49.20;48.05;50.47;;
17594;Laerm;8916;47.086;15.920;2023-01-04T08:01:05;49.20;48.08;50.49;;
17594;Laerm;8916;47.086;15.920;2023-01-04T08:03:35;49.19;47.96;50.22;;
17594;Laerm;8916;47.086;15.920;2023-01-04T08:06:06;49.19;47.86;50.36;;
17594;Laerm;8916;47.086;15.920;2023-01-04T08:08:37;49.19;48.10;50.44;;
17594;Laerm;8916;47.086;15.920;2023-01-04T08:11:10;49.19;48.15;50.31;;
17594;Laerm;8916;47.086;15.920;2023-01-04T08:13:40;49.19;48.18;50.26;;
17594;Laerm;8916;47.086;15.920;2023-01-04T08:16:23;49.18;48.05;50.36;;
17594;Laerm;8916;47.086;15.920;2023-01-04T08:18:56;49.18;48.15;50.31;;
17594;Laerm;8916;47.086;15.920;2023-01-04T08:21:27;49.19;48.08;50.26;;
17594;Laerm;8916;47.086;15.920;2023-01-04T08:23:59;49.18;48.10;50.29;;
17594;Laerm;8916;47.086;15.920;2023-01-04T08:26:29;49.18;48.02;50.16;;
17594;Laerm;8916;47.086;15.920;2023-01-04T08:28:58;49.17;47.96;50.30;;
17594;Laerm;8916;47.086;15.920;2023-01-04T08:31:29;49.18;48.03;50.26;;
17594;Laerm;8916;47.086;15.920;2023-01-04T08:34:02;49.17;48.05;50.46;;
17594;Laerm;8916;47.086;15.920;2023-01-04T08:36:33;49.18;48.13;50.24;;
17594;Laerm;8916;47.086;15.920;2023-01-04T08:39:05;49.17;48.03;50.41;;
17594;Laerm;8916;47.086;15.920;2023-01-04T08:41:34;49.15;47.98;50.49;;
17594;Laerm;8916;47.086;15.920;2023-01-04T08:44:37;49.14;48.13;50.35;;
17594;Laerm;8916;47.086;15.920;2023-01-04T08:47:07;49.12;47.88;50.15;;
17594;Laerm;8916;47.086;15.920;2023-01-04T08:49:36;49.12;47.98;50.21;;
17594;Laerm;8916;47.086;15.920;2023-01-04T08:52:06;49.12;47.93;50.05;;
17594;Laerm;8916;47.086;15.920;2023-01-04T08:54:38;49.11;47.91;50.43;;
17594;Laerm;8916;47.086;15.920;2023-01-04T08:57:07;49.12;48.00;50.12;;
17594;Laerm;8916;47.086;15.920;2023-01-04T08:59:36;49.11;47.79;50.27;;
17594;Laerm;8916;47.086;15.920;2023-01-04T09:02:18;49.08;47.86;50.31;;
17594;Laerm;8916;47.086;15.920;2023-01-04T09:04:48;49.07;47.95;50.27;;
17594;Laerm;8916;47.086;15.920;2023-01-04T09:07:18;49.06;47.88;50.16;;
17594;Laerm;8916;47.086;15.920;2023-01-04T09:09:49;49.06;48.08;50.33;;
17594;Laerm;8916;47.086;15.920;2023-01-04T09:12:18;49.05;47.91;50.05;;
17594;Laerm;8916;47.086;15.920;2023-01-04T09:14:47;49.06;48.03;50.25;;
17594;Laerm;8916;47.086;15.920;2023-01-04T09:17:17;49.06;48.10;50.33;;
17594;Laerm;8916;47.086;15.920;2023-01-04T09:19:46;49.06;47.95;50.19;;
17594;Laerm;8916;47.086;15.920;2023-01-04T09:22:16;49.06;47.88;50.43;;
17594;Laerm;8916;47.086;15.920;2023-01-04T09:24:45;49.06;47.96;50.37;;
17594;Laerm;8916;47.086;15.920;2023-01-04T09:27:18;49.06;48.05;50.15;;
17594;Laerm;8916;47.086;15.920;2023-01-04T09:29:47;49.06;47.95;50.13;;
17594;Laerm;8916;47.086;15.920;2023-01-04T09:32:17;49.06;47.95;50.14;;
17594;Laerm;8916;47.086;15.920;2023-01-04T09:34:46;49.05;47.86;50.39;;
17594;Laerm;8916;47.086;15.920;2023-01-04T09:37:15;49.05;47.98;50.35;;
17594;Laerm;8916;47.086;15.920;2023-01-04T09:39:45;49.05;47.96;50.28;;
17594;Laerm;8916;47.086;15.920;2023-01-04T09:42:20;49.04;47.96;50.29;;
17594;Laerm;8916;47.086;15.920;2023-01-04T09:44:54;49.04;47.98;50.27;;
17594;Laerm;8916;47.086;15.920;2023-01-04T09:47:53;49.00;47.79;50.06;;
17594;Laerm;8916;47.086;15.920;2023-01-04T09:50:26;48.97;47.76;50.12;;
17594;Laerm;8916;47.086;15.920;2023-01-04T09:53:05;48.96;47.91;50.08;;
17594;Laerm;8916;47.086;15.920;2023-01-04T09:55:43;49.00;48.02;50.16;;
17594;Laerm;8916;47.086;15.920;2023-01-04T09:58:25;48.99;47.86;50.20;;
17594;Laerm;8916;47.086;15.920;2023-01-04T10:01:00;48.99;47.77;50.20;;
17594;Laerm;8916;47.086;15.920;2023-01-04T10:03:33;49.00;47.98;50.36;;
17594;Laerm;8916;47.086;15.920;2023-01-04T10:06:04;48.98;47.81;50.12;;
17594;Laerm;8916;47.086;15.920;2023-01-04T10:08:36;48.97;47.86;50.19;;
17594;Laerm;8916;47.086;15.920;2023-01-04T10:11:27;48.98;47.72;50.28;;
17594;Laerm;8916;47.086;15.920;2023-01-04T10:14:25;48.99;47.70;50.16;;
17594;Laerm;8916;47.086;15.920;2023-01-04T10:17:15;49.00;47.83;50.32;;
17594;Laerm;8916;47.086;15.920;2023-01-04T10:21:04;48.99;47.88;50.34;;
17594;Laerm;8916;47.086;15.920;2023-01-04T10:24:04;49.02;47.81;50.16;;
17594;Laerm;8916;47.086;15.920;2023-01-04T10:26:43;49.01;47.83;50.25;;
17594;Laerm;8916;47.086;15.920;2023-01-04T10:29:41;49.02;47.88;50.45;;
17594;Laerm;8916;47.086;15.920;2023-01-04T10:32:17;49.02;47.86;50.12;;
17594;Laerm;8916;47.086;15.920;2023-01-04T10:34:48;49.01;48.00;50.23;;
17594;Laerm;8916;47.086;15.920;2023-01-04T10:37:20;49.03;48.12;50.12;;
17594;Laerm;8916;47.086;15.920;2023-01-04T10:39:52;49.02;47.84;50.22;;
17594;Laerm;8916;47.086;15.920;2023-01-04T10:42:31;49.01;47.96;50.05;;
17594;Laerm;8916;47.086;15.920;2023-01-04T10:45:12;49.01;47.86;50.23;;
17594;Laerm;8916;47.086;15.920;2023-01-04T10:47:53;49.03;47.98;50.29;;
17594;Laerm;8916;47.086;15.920;2023-01-04T10:50:36;49.03;47.68;50.17;;
17594;Laerm;8916;47.086;15.920;2023-01-04T10:53:14;49.02;47.68;50.29;;
17594;Laerm;8916;47.086;15.920;2023-01-04T10:55:51;49.03;47.90;50.28;;
17594;Laerm;8916;47.086;15.920;2023-01-04T10:58:46;49.03;47.72;50.06;;
17594;Laerm;8916;47.086;15.920;2023-01-04T11:01:24;49.04;47.81;50.18;;
17594;Laerm;8916;47.086;15.920;2023-01-04T11:04:01;49.04;47.93;50.14;;
17594;Laerm;8916;47.086;15.920;2023-01-04T11:06:37;49.03;47.98;50.20;;
17594;Laerm;8916;47.086;15.920;2023-01-04T11:09:15;49.03;47.88;50.17;;
17594;Laerm;8916;47.086;15.920;2023-01-04T11:11:55;49.04;48.02;50.20;;
17594;Laerm;8916;47.086;15.920;2023-01-04T11:14:25;49.03;48.00;50.09;;
17594;Laerm;8916;47.086;15.920;2023-01-04T11:17:06;49.02;47.83;50.25;;
17594;Laerm;8916;47.086;15.920;2023-01-04T11:19:37;49.02;47.91;50.42;;
17594;Laerm;8916;47.086;15.920;2023-01-04T11:22:13;49.01;47.90;50.22;;
17594;Laerm;8916;47.086;15.920;2023-01-04T11:24:47;49.02;47.76;50.33;;
17594;Laerm;8916;47.086;15.920;2023-01-04T11:27:44;49.02;48.03;50.11;;
17594;Laerm;8916;47.086;15.920;2023-01-04T11:30:17;49.02;48.02;50.20;;
17594;Laerm;8916;47.086;15.920;2023-01-04T11:32:55;49.02;47.93;50.20;;
17594;Laerm;8916;47.086;15.920;2023-01-04T11:35:38;49.02;47.77;50.14;;
17594;Laerm;8916;47.086;15.920;2023-01-04T11:38:13;49.02;47.86;50.07;;
17594;Laerm;8916;47.086;15.920;2023-01-04T11:40:56;49.01;48.07;50.10;;
17594;Laerm;8916;47.086;15.920;2023-01-04T11:43:28;49.02;47.91;50.15;;
17594;Laerm;8916;47.086;15.920;2023-01-04T11:46:02;49.00;47.91;50.03;;
17594;Laerm;8916;47.086;15.920;2023-01-04T11:48:39;49.01;47.90;50.35;;
17594;Laerm;8916;47.086;15.920;2023-01-04T11:51:33;49.02;48.02;50.15;;
17594;Laerm;8916;47.086;15.920;2023-01-04T11:54:18;49.03;47.95;50.22;;
17594;Laerm;8916;47.086;15.920;2023-01-04T11:57:00;49.03;47.88;50.29;;
17594;Laerm;8916;47.086;15.920;2023-01-04T11:59:38;49.02;47.88;50.17;;
17594;Laerm;8916;47.086;15.920;2023-01-04T12:02:22;49.02;48.05;50.12;;
17594;Laerm;8916;47.086;15.920;2023-01-04T12:05:18;49.03;48.02;50.16;;
17594;Laerm;8916;47.086;15.920;2023-01-04T12:07:56;49.02;47.95;50.13;;
17594;Laerm;8916;47.086;15.920;2023-01-04T12:10:28;49.02;47.86;50.08;;
17594;Laerm;8916;47.086;15.920;2023-01-04T12:13:00;49.03;47.76;50.22;;
17594;Laerm;8916;47.086;15.920;2023-01-04T12:15:35;49.03;47.95;50.44;;
17594;Laerm;8916;47.086;15.920;2023-01-04T12:18:14;49.03;47.91;50.29;;
17594;Laerm;8916;47.086;15.920;2023-01-04T12:20:47;49.03;47.98;50.07;;
17594;Laerm;8916;47.086;15.920;2023-01-04T12:23:17;49.02;47.90;50.32;;
17594;Laerm;8916;47.086;15.920;2023-01-04T12:25:49;49.02;47.96;50.07;;
17594;Laerm;8916;47.086;15.920;2023-01-04T12:28:34;49.01;47.84;50.30;;
17594;Laerm;8916;47.086;15.920;2023-01-04T12:31:30;49.02;47.90;50.20;;
17594;Laerm;8916;47.086;15.920;2023-01-04T12:34:40;49.02;47.91;50.22;;
17594;Laerm;8916;47.086;15.920;2023-01-04T12:37:45;49.01;47.95;50.25;;
17594;Laerm;8916;47.086;15.920;2023-01-04T12:40:51;49.00;47.93;50.09;;
17594;Laerm;8916;47.086;15.920;2023-01-04T12:43:26;49.00;47.88;50.01;;
17594;Laerm;8916;47.086;15.920;2023-01-04T12:46:41;49.01;47.96;50.24;;
17594;Laerm;8916;47.086;15.920;2023-01-04T12:49:51;49.00;47.93;50.34;;
17594;Laerm;8916;47.086;15.920;2023-01-04T12:52:45;49.00;47.86;50.10;;
17594;Laerm;8916;47.086;15.920;2023-01-04T12:55:56;48.99;47.63;50.23;;
17594;Laerm;8916;47.086;15.920;2023-01-04T13:02:20;48.95;47.48;50.01;;
17594;Laerm;8916;47.086;15.920;2023-01-04T13:04:52;48.94;47.95;50.10;;
17594;Laerm;8916;47.086;15.920;2023-01-04T13:07:48;48.94;47.79;50.17;;
17594;Laerm;8916;47.086;15.920;2023-01-04T13:10:30;48.96;47.84;50.20;;
17594;Laerm;8916;47.086;15.920;2023-01-04T13:13:27;48.96;47.76;50.18;;
17594;Laerm;8916;47.086;15.920;2023-01-04T13:16:14;48.97;47.88;50.10;;
17594;Laerm;8916;47.086;15.920;2023-01-04T13:18:47;48.96;47.95;50.08;;
17594;Laerm;8916;47.086;15.920;2023-01-04T13:21:26;48.97;47.96;50.15;;
17594;Laerm;8916;47.086;15.920;2023-01-04T13:23:59;48.99;47.83;50.06;;
17594;Laerm;8916;47.086;15.920;2023-01-04T13:26:36;48.99;47.93;50.08;;
17594;Laerm;8916;47.086;15.920;2023-01-04T13:29:10;49.00;47.95;50.07;;
17594;Laerm;8916;47.086;15.920;2023-01-04T13:31:47;49.00;47.84;50.19;;
17594;Laerm;8916;47.086;15.920;2023-01-04T13:34:24;49.00;47.91;50.22;;
17594;Laerm;8916;47.086;15.920;2023-01-04T13:37:13;48.98;47.91;50.18;;
17594;Laerm;8916;47.086;15.920;2023-01-04T13:39:48;48.97;47.84;50.28;;
17594;Laerm;8916;47.086;15.920;2023-01-04T13:42:24;48.94;47.84;50.12;;
17594;Laerm;8916;47.086;15.920;2023-01-04T13:48:39;48.92;47.54;50.02;;
17594;Laerm;8916;47.086;15.920;2023-01-04T13:51:15;48.93;47.74;49.97;;
17594;Laerm;8916;47.086;15.920;2023-01-04T13:53:55;48.94;47.86;50.10;;
17594;Laerm;8916;47.086;15.920;2023-01-04T13:56:28;48.95;47.68;50.32;;
17594;Laerm;8916;47.086;15.920;2023-01-04T13:58:58;48.95;47.90;50.11;;
17594;Laerm;8916;47.086;15.920;2023-01-04T14:01:30;48.96;47.84;50.46;;
17594;Laerm;8916;47.086;15.920;2023-01-04T14:04:01;48.97;47.67;50.17;;
17594;Laerm;8916;47.086;15.920;2023-01-04T14:06:38;48.96;47.74;50.31;;
17594;Laerm;8916;47.086;15.920;2023-01-04T14:09:14;48.95;47.70;50.02;;
17594;Laerm;8916;47.086;15.920;2023-01-04T14:11:48;48.92;47.72;50.03;;
17594;Laerm;8916;47.086;15.920;2023-01-04T14:14:39;48.90;47.81;50.06;;
17594;Laerm;8916;47.086;15.920;2023-01-04T14:17:29;48.90;47.70;50.15;;
17594;Laerm;8916;47.086;15.920;2023-01-04T14:20:00;48.89;47.61;50.19;;
17594;Laerm;8916;47.086;15.920;2023-01-04T14:22:50;48.85;47.77;49.96;;
17594;Laerm;8916;47.086;15.920;2023-01-04T14:25:40;48.83;47.70;49.96;;
17594;Laerm;8916;47.086;15.920;2023-01-04T14:28:36;48.85;47.65;50.10;;
17594;Laerm;8916;47.086;15.920;2023-01-04T14:31:29;48.85;47.86;50.00;;
17594;Laerm;8916;47.086;15.920;2023-01-04T14:34:06;48.87;47.79;50.11;;
17594;Laerm;8916;47.086;15.920;2023-01-04T14:36:41;48.91;47.91;50.32;;
17594;Laerm;8916;47.086;15.920;2023-01-04T14:39:31;48.91;47.84;50.23;;
17594;Laerm;8916;47.086;15.920;2023-01-04T14:42:02;48.91;47.95;50.29;;
17594;Laerm;8916;47.086;15.920;2023-01-04T14:44:33;48.93;47.68;49.98;;
17594;Laerm;8916;47.086;15.920;2023-01-04T14:47:09;48.94;47.86;50.15;;